Time;durP1;ratioP1;P1;durP2;ratioP2;P2;SDS_P1;SDS_P2;PMS_P1;PMS_P2;Temp;Humidity;BMP_temperature;BMP_pressure;BME280_temperature;BME280_humidity;BME280_pressure;Samples;Min_cycle;Max_cycle;Signal;HPM_P1;HPM_P2
2022/08/16 00:00:24;;;;;;;3.00;2.03;;;19.00;71.40;;;;;;5113645;28;20283;-87
2022/08/16 00:02:52;;;;;;;2.30;2.10;;;19.10;69.60;;;;;;5112096;28;20287;-86
2022/08/16 00:05:22;;;;;;;4.53;2.28;;;19.10;71.90;;;;;;5111847;28;20208;-86
2022/08/16 00:07:49;;;;;;;2.15;1.95;;;19.00;72.00;;;;;;5114843;28;20200;-86
2022/08/16 00:10:18;;;;;;;2.85;1.90;;;19.00;71.20;;;;;;5112155;28;20321;-86
2022/08/16 00:12:45;;;;;;;2.40;2.20;;;19.00;71.20;;;;;;5113328;28;20216;-86
2022/08/16 00:15:16;;;;;;;2.65;2.10;;;19.00;72.10;;;;;;5113563;28;20226;-86
2022/08/16 00:17:43;;;;;;;2.15;2.00;;;19.00;73.20;;;;;;5110998;28;20562;-86
2022/08/16 00:20:12;;;;;;;2.45;2.22;;;19.00;73.30;;;;;;5111226;28;20287;-86
2022/08/16 00:22:42;;;;;;;2.38;2.17;;;19.00;72.40;;;;;;5114642;28;20195;-86
2022/08/16 00:25:14;;;;;;;4.07;2.40;;;19.00;74.60;;;;;;5114637;28;20204;-87
2022/08/16 00:27:41;;;;;;;2.45;2.25;;;18.90;74.40;;;;;;5114311;28;20729;-87
2022/08/16 00:30:11;;;;;;;3.63;2.22;;;19.00;73.80;;;;;;5113844;28;20216;-87
2022/08/16 00:32:39;;;;;;;2.20;2.00;;;18.90;74.10;;;;;;5110356;28;20205;-86
2022/08/16 00:35:09;;;;;;;1.95;1.85;;;18.80;75.60;;;;;;5110621;28;20236;-86
2022/08/16 00:37:36;;;;;;;3.30;2.13;;;18.90;75.30;;;;;;5112528;28;20220;-87
2022/08/16 00:40:06;;;;;;;2.65;2.42;;;18.90;75.00;;;;;;5108827;28;20212;-86
2022/08/16 00:42:36;;;;;;;2.40;2.20;;;18.80;76.00;;;;;;5113077;28;20196;-87
2022/08/16 00:45:16;;;;;;;2.50;2.30;;;18.70;76.70;;;;;;5113207;28;20284;-87
2022/08/16 00:47:46;;;;;;;2.20;2.00;;;18.80;76.70;;;;;;5113721;28;20214;-87
2022/08/16 00:50:26;;;;;;;3.35;2.00;;;18.80;77.00;;;;;;5113612;28;20199;-86
2022/08/16 00:52:53;;;;;;;4.38;2.17;;;18.70;77.40;;;;;;5111703;28;20208;-87
2022/08/16 00:55:24;;;;;;;2.30;2.10;;;18.70;77.10;;;;;;5112353;28;20263;-87
2022/08/16 00:57:55;;;;;;;4.03;2.08;;;18.80;76.20;;;;;;5113445;28;20215;-87
2022/08/16 01:00:26;;;;;;;2.15;2.00;;;18.80;76.00;;;;;;5101322;28;20654;-87
2022/08/16 01:02:54;;;;;;;2.55;2.10;;;18.90;76.00;;;;;;5111589;28;20658;-87
2022/08/16 01:05:21;;;;;;;2.50;2.25;;;18.90;75.40;;;;;;5111436;28;20206;-87
2022/08/16 01:07:48;;;;;;;2.67;2.20;;;18.80;76.40;;;;;;5111778;28;20225;-87
2022/08/16 01:10:15;;;;;;;2.60;2.40;;;18.80;76.30;;;;;;5112118;28;20566;-87
2022/08/16 01:12:43;;;;;;;2.40;2.15;;;18.90;75.40;;;;;;5113569;28;20200;-87
2022/08/16 01:15:11;;;;;;;2.40;2.20;;;18.90;75.50;;;;;;5097636;28;20204;-87
2022/08/16 01:17:41;;;;;;;4.03;2.17;;;18.80;76.60;;;;;;5102567;28;20706;-86
2022/08/16 01:20:11;;;;;;;2.50;2.30;;;18.80;77.00;;;;;;5101341;28;20200;-86
2022/08/16 01:22:47;;;;;;;3.70;1.88;;;18.70;78.90;;;;;;5113759;28;20192;-86
2022/08/16 01:25:24;;;;;;;2.78;2.58;;;18.70;79.30;;;;;;5112782;28;20659;-86
2022/08/16 01:27:53;;;;;;;2.50;2.30;;;18.70;78.10;;;;;;5114077;28;20200;-86
2022/08/16 01:30:24;;;;;;;3.60;2.17;;;18.70;79.90;;;;;;5101918;28;20191;-86
2022/08/16 01:32:53;;;;;;;4.13;2.00;;;18.70;78.30;;;;;;5113731;28;20196;-86
2022/08/16 01:35:23;;;;;;;2.50;2.30;;;18.80;76.80;;;;;;5100985;28;20547;-86
2022/08/16 01:37:54;;;;;;;2.40;2.20;;;18.80;78.00;;;;;;5105935;28;20558;-86
2022/08/16 01:40:25;;;;;;;2.95;2.33;;;18.90;77.60;;;;;;5109264;28;20204;-86
2022/08/16 01:42:53;;;;;;;4.00;2.17;;;18.90;76.40;;;;;;5097264;28;20204;-86
2022/08/16 01:45:21;;;;;;;2.15;2.05;;;18.80;77.50;;;;;;5108240;28;20234;-86
2022/08/16 01:47:54;;;;;;;4.63;2.50;;;18.70;77.70;;;;;;5111203;28;20574;-86
2022/08/16 01:50:22;;;;;;;2.60;2.20;;;18.80;77.20;;;;;;5114244;28;20207;-86
2022/08/16 01:52:50;;;;;;;3.00;2.30;;;18.80;77.00;;;;;;5105938;28;20200;-86
2022/08/16 01:55:17;;;;;;;2.22;2.03;;;18.80;77.10;;;;;;5118205;28;20288;-86
2022/08/16 01:57:46;;;;;;;2.83;1.98;;;18.80;77.50;;;;;;5112976;28;20243;-86
2022/08/16 02:00:14;;;;;;;2.60;2.15;;;18.70;78.90;;;;;;5110617;28;20667;-86
2022/08/16 02:02:41;;;;;;;2.22;2.03;;;18.80;77.50;;;;;;5113232;28;20204;-87
2022/08/16 02:05:09;;;;;;;2.38;2.08;;;18.80;76.60;;;;;;5111863;28;20211;-86
2022/08/16 02:07:37;;;;;;;2.38;2.03;;;18.80;77.50;;;;;;5116577;28;20339;-86
2022/08/16 02:10:06;;;;;;;2.67;2.30;;;18.80;76.80;;;;;;5117119;28;20231;-86
2022/08/16 02:12:33;;;;;;;3.38;2.00;;;18.90;75.90;;;;;;5117336;28;20200;-86
2022/08/16 02:15:03;;;;;;;5.10;2.17;;;18.90;76.20;;;;;;5116152;28;20200;-86
2022/08/16 02:17:30;;;;;;;2.47;2.00;;;18.90;75.80;;;;;;5116697;28;20227;-86
2022/08/16 02:19:57;;;;;;;3.97;2.22;;;18.90;76.00;;;;;;5116721;28;20210;-86
2022/08/16 02:22:25;;;;;;;2.45;2.00;;;18.90;75.20;;;;;;5116580;28;20283;-86
2022/08/16 02:24:52;;;;;;;2.58;2.03;;;18.90;75.20;;;;;;5108069;28;20200;-86
2022/08/16 02:27:19;;;;;;;3.72;2.20;;;18.80;75.70;;;;;;5116068;28;20203;-86
2022/08/16 02:29:45;;;;;;;2.35;2.10;;;18.80;75.10;;;;;;5106707;28;21090;-86
2022/08/16 02:32:16;;;;;;;3.17;1.98;;;18.70;75.90;;;;;;5114076;28;20300;-86
2022/08/16 02:34:43;;;;;;;2.20;2.00;;;18.70;75.40;;;;;;5115547;28;20210;-86
2022/08/16 02:37:10;;;;;;;2.55;2.05;;;18.70;76.30;;;;;;5116186;28;20754;-86
2022/08/16 02:39:37;;;;;;;1.90;1.80;;;18.60;76.00;;;;;;5115512;27;20204;-86
2022/08/16 02:42:05;;;;;;;2.10;1.90;;;18.70;76.30;;;;;;5116370;28;20611;-86
2022/08/16 02:44:32;;;;;;;3.08;2.10;;;18.60;75.90;;;;;;5114416;28;20223;-86
2022/08/16 02:46:58;;;;;;;2.22;2.00;;;18.50;76.60;;;;;;5110648;28;20201;-86
2022/08/16 02:49:26;;;;;;;2.70;2.38;;;18.40;77.90;;;;;;5107044;28;20212;-86
2022/08/16 02:51:53;;;;;;;2.50;2.13;;;18.20;80.40;;;;;;5114333;28;20242;-86
2022/08/16 02:54:20;;;;;;;2.38;2.17;;;18.00;81.00;;;;;;5113872;28;20196;-86
2022/08/16 02:56:47;;;;;;;2.53;2.10;;;17.80;82.20;;;;;;5116256;28;20224;-86
2022/08/16 02:59:14;;;;;;;2.35;2.15;;;17.70;84.00;;;;;;5116255;28;20224;-86
2022/08/16 03:01:41;;;;;;;2.65;2.20;;;17.70;84.70;;;;;;5116953;28;20188;-86
2022/08/16 03:04:12;;;;;;;2.75;2.28;;;17.60;85.20;;;;;;5111510;28;20207;-86
2022/08/16 03:06:40;;;;;;;2.17;1.98;;;17.50;86.60;;;;;;5108827;28;20243;-86
2022/08/16 03:09:07;;;;;;;4.70;2.20;;;17.40;87.80;;;;;;5116637;28;20651;-86
2022/08/16 03:11:34;;;;;;;2.78;2.25;;;17.40;87.50;;;;;;5116958;27;20203;-86
2022/08/16 03:14:01;;;;;;;2.20;2.00;;;17.50;87.50;;;;;;5116374;28;20654;-86
2022/08/16 03:16:29;;;;;;;2.60;2.20;;;17.50;86.70;;;;;;5115462;28;20565;-86
2022/08/16 03:18:56;;;;;;;2.50;2.22;;;17.50;86.70;;;;;;5121019;28;20335;-86
2022/08/16 03:21:22;;;;;;;3.75;2.22;;;17.50;86.40;;;;;;5118955;28;20200;-86
2022/08/16 03:23:51;;;;;;;2.15;1.95;;;17.60;86.40;;;;;;5114576;27;20210;-86
2022/08/16 03:26:19;;;;;;;3.28;2.17;;;17.60;85.80;;;;;;5112659;28;20683;-86
2022/08/16 03:28:45;;;;;;;2.22;2.03;;;17.50;86.40;;;;;;5117461;28;20288;-86
2022/08/16 03:31:12;;;;;;;2.40;2.15;;;17.40;86.90;;;;;;5112830;28;20565;-86
2022/08/16 03:33:39;;;;;;;2.42;2.22;;;17.30;87.90;;;;;;5117531;28;20659;-86
2022/08/16 03:36:07;;;;;;;2.67;2.05;;;17.30;89.10;;;;;;5113509;28;20200;-86
2022/08/16 03:38:35;;;;;;;2.50;2.30;;;17.30;88.50;;;;;;5105495;28;20215;-86
2022/08/16 03:41:08;;;;;;;2.20;2.00;;;17.20;88.50;;;;;;5103615;28;20196;-86
2022/08/16 03:43:36;;;;;;;3.17;2.10;;;17.20;88.60;;;;;;5112764;28;20211;-86
2022/08/16 03:46:03;;;;;;;2.40;2.20;;;17.20;88.50;;;;;;5118137;28;20275;-86
2022/08/16 03:48:38;;;;;;;3.65;2.00;;;17.30;89.20;;;;;;5117548;28;20657;-86
2022/08/16 03:51:08;;;;;;;2.55;2.35;;;17.30;88.50;;;;;;5111734;28;20199;-86
2022/08/16 03:53:35;;;;;;;2.63;2.30;;;17.20;88.80;;;;;;5112954;28;20537;-86
2022/08/16 03:56:02;;;;;;;2.45;2.25;;;17.10;88.90;;;;;;5115332;28;20192;-86
2022/08/16 03:58:30;;;;;;;2.30;2.10;;;17.00;89.40;;;;;;5110340;28;20755;-86
2022/08/16 04:00:57;;;;;;;2.65;2.45;;;16.90;90.40;;;;;;5105443;27;20196;-86
2022/08/16 04:03:24;;;;;;;3.83;2.17;;;16.90;90.70;;;;;;5111680;28;20283;-86
2022/08/16 04:05:51;;;;;;;3.15;2.15;;;16.90;90.40;;;;;;5105828;28;20566;-86
2022/08/16 04:08:20;;;;;;;2.60;2.22;;;16.90;90.00;;;;;;5110463;28;20214;-86
2022/08/16 04:10:48;;;;;;;2.42;2.22;;;16.80;90.30;;;;;;5115186;28;20234;-86
2022/08/16 04:13:14;;;;;;;2.83;2.38;;;16.60;90.70;;;;;;5113262;28;20192;-86
2022/08/16 04:15:43;;;;;;;2.28;2.08;;;16.60;91.50;;;;;;5112508;28;20570;-86
2022/08/16 04:18:10;;;;;;;2.80;2.33;;;16.60;91.80;;;;;;5114784;28;20579;-86
2022/08/16 04:20:37;;;;;;;4.10;2.33;;;16.40;91.80;;;;;;5114318;28;20278;-86
2022/08/16 04:23:06;;;;;;;2.15;1.95;;;16.40;91.80;;;;;;5113987;28;20195;-86
2022/08/16 04:25:37;;;;;;;2.55;2.35;;;16.30;92.00;;;;;;5113729;28;20203;-85
2022/08/16 04:28:04;;;;;;;2.60;2.40;;;16.30;92.70;;;;;;5113285;28;20207;-86
2022/08/16 04:30:32;;;;;;;2.50;2.30;;;16.30;92.70;;;;;;5112777;28;20627;-86
2022/08/16 04:33:00;;;;;;;4.40;2.42;;;16.40;92.60;;;;;;5114467;28;20200;-86
2022/08/16 04:35:28;;;;;;;2.78;2.10;;;16.40;92.30;;;;;;5113515;28;20242;-86
2022/08/16 04:37:55;;;;;;;2.95;2.65;;;16.50;92.10;;;;;;5112912;28;20230;-86
2022/08/16 04:40:23;;;;;;;2.50;2.30;;;16.60;91.80;;;;;;5114043;28;20587;-86
2022/08/16 04:42:50;;;;;;;3.90;2.60;;;16.60;91.80;;;;;;5113330;28;20196;-86
2022/08/16 04:45:18;;;;;;;2.50;2.30;;;16.60;91.80;;;;;;5112687;28;20272;-86
2022/08/16 04:47:45;;;;;;;2.60;2.40;;;16.60;91.80;;;;;;5115619;28;20199;-86
2022/08/16 04:50:16;;;;;;;5.43;2.67;;;16.60;91.80;;;;;;5118066;28;20267;-86
2022/08/16 04:52:45;;;;;;;5.18;2.40;;;16.70;91.90;;;;;;5114260;28;20200;-86
2022/08/16 04:55:14;;;;;;;4.40;2.25;;;16.70;91.90;;;;;;5110543;28;20204;-86
2022/08/16 04:57:41;;;;;;;2.35;2.15;;;16.80;91.90;;;;;;5114791;28;20224;-86
2022/08/16 05:00:12;;;;;;;4.30;2.53;;;16.80;91.40;;;;;;5111791;28;20216;-86
2022/08/16 05:02:40;;;;;;;3.03;2.47;;;16.80;91.40;;;;;;5114345;28;20231;-86
2022/08/16 05:05:08;;;;;;;3.70;2.55;;;16.70;91.50;;;;;;5114379;28;20204;-86
2022/08/16 05:07:38;;;;;;;4.70;2.67;;;16.80;91.40;;;;;;5119777;28;20207;-85
2022/08/16 05:10:12;;;;;;;4.30;2.58;;;16.80;91.00;;;;;;5119376;28;20207;-86
2022/08/16 05:12:39;;;;;;;2.78;2.50;;;16.80;91.20;;;;;;5112632;28;20287;-86
2022/08/16 05:15:08;;;;;;;3.67;2.42;;;16.80;91.20;;;;;;5114844;28;20229;-86
2022/08/16 05:17:35;;;;;;;3.95;2.47;;;16.70;91.30;;;;;;5109422;28;20256;-86
2022/08/16 05:20:02;;;;;;;2.72;2.33;;;16.80;91.40;;;;;;5114282;28;20206;-86
2022/08/16 05:22:30;;;;;;;2.58;2.38;;;16.80;91.20;;;;;;5114824;28;20666;-86
2022/08/16 05:24:58;;;;;;;3.03;2.30;;;16.90;91.20;;;;;;5115066;28;20210;-86
2022/08/16 05:27:25;;;;;;;4.05;2.63;;;16.80;91.20;;;;;;5113291;28;20204;-86
2022/08/16 05:29:52;;;;;;;2.92;2.65;;;16.90;91.10;;;;;;5113073;28;20209;-86
2022/08/16 05:32:24;;;;;;;3.08;2.78;;;16.80;91.30;;;;;;5111078;28;20631;-86
2022/08/16 05:34:51;;;;;;;4.43;2.65;;;16.80;91.30;;;;;;5113295;28;20204;-86
2022/08/16 05:37:18;;;;;;;4.47;2.85;;;16.80;91.40;;;;;;5115207;28;20231;-86
2022/08/16 05:39:45;;;;;;;5.78;2.78;;;16.90;90.90;;;;;;5115123;28;20200;-86
2022/08/16 05:42:13;;;;;;;5.03;2.47;;;17.00;90.70;;;;;;5118172;28;20642;-86
2022/08/16 05:44:40;;;;;;;6.95;2.75;;;17.00;90.50;;;;;;5116486;28;20219;-86
2022/08/16 05:47:07;;;;;;;5.03;2.83;;;17.00;90.60;;;;;;5115375;28;20705;-86
2022/08/16 05:49:34;;;;;;;8.05;2.67;;;17.00;90.70;;;;;;5118186;28;20200;-85
2022/08/16 05:52:00;;;;;;;3.40;2.45;;;17.00;90.70;;;;;;5114965;28;20212;-86
2022/08/16 05:54:31;;;;;;;7.03;5.82;;;17.00;91.20;;;;;;5117428;28;20196;-86
2022/08/16 05:56:58;;;;;;;5.65;3.97;;;17.10;90.50;;;;;;5118572;28;20554;-86
2022/08/16 05:59:27;;;;;;;13.95;11.40;;;17.20;89.30;;;;;;5116617;28;20219;-86
2022/08/16 06:01:54;;;;;;;5.25;4.30;;;17.30;88.80;;;;;;5115308;28;20191;-86
2022/08/16 06:04:22;;;;;;;5.50;3.97;;;17.50;87.10;;;;;;5106494;28;20204;-86
2022/08/16 06:06:49;;;;;;;4.30;2.55;;;17.70;85.70;;;;;;5118950;28;20215;-86
2022/08/16 06:09:16;;;;;;;6.25;3.60;;;17.80;82.80;;;;;;5116368;28;20202;-86
2022/08/16 06:11:47;;;;;;;4.68;2.60;;;17.80;83.40;;;;;;5118179;28;20608;-86
2022/08/16 06:14:14;;;;;;;4.68;2.60;;;17.90;83.50;;;;;;5114697;28;20196;-86
2022/08/16 06:16:47;;;;;;;5.75;2.50;;;18.00;83.10;;;;;;5111283;28;20196;-86
2022/08/16 06:19:14;;;;;;;4.95;2.53;;;18.00;82.00;;;;;;5113712;28;20211;-86
2022/08/16 06:21:41;;;;;;;4.72;2.60;;;18.20;80.70;;;;;;5113083;28;20253;-86
2022/08/16 06:24:08;;;;;;;4.72;2.60;;;18.20;79.60;;;;;;5117245;28;20558;-86
2022/08/16 06:26:35;;;;;;;5.68;2.58;;;18.30;79.60;;;;;;5116646;28;20654;-86
2022/08/16 06:29:02;;;;;;;3.90;2.30;;;18.40;79.70;;;;;;5112420;28;20214;-86
2022/08/16 06:31:29;;;;;;;6.20;2.58;;;18.40;79.70;;;;;;5111488;27;20221;-86
2022/08/16 06:33:57;;;;;;;5.68;2.90;;;18.40;79.70;;;;;;5111998;28;20196;-86
2022/08/16 06:36:24;;;;;;;6.75;2.67;;;18.40;77.50;;;;;;5116075;28;20646;-86
2022/08/16 06:38:51;;;;;;;5.13;2.53;;;18.50;77.90;;;;;;5106766;28;20588;-86
2022/08/16 06:41:18;;;;;;;4.13;2.67;;;18.60;76.90;;;;;;5112231;28;20212;-86
2022/08/16 06:43:45;;;;;;;4.40;2.70;;;18.70;75.50;;;;;;5105598;28;20574;-86
2022/08/16 06:46:24;;;;;;;2.70;2.10;;;18.80;73.90;;;;;;5110659;28;20754;-86
2022/08/16 06:48:51;;;;;;;5.45;2.35;;;18.90;73.60;;;;;;5116146;28;20622;-86
2022/08/16 06:51:19;;;;;;;6.05;2.30;;;19.00;70.90;;;;;;5115015;28;20292;-86
2022/08/16 06:53:46;;;;;;;4.30;2.05;;;19.10;71.70;;;;;;5112224;27;20566;-86
2022/08/16 06:56:24;;;;;;;2.30;2.00;;;19.20;68.30;;;;;;5116303;28;20667;-86
2022/08/16 06:58:52;;;;;;;4.22;2.38;;;19.30;68.00;;;;;;5118653;28;20229;-85
2022/08/16 07:01:19;;;;;;;2.28;1.95;;;19.40;67.20;;;;;;5117312;28;20204;-86
2022/08/16 07:03:46;;;;;;;5.85;2.17;;;19.60;64.10;;;;;;5115454;28;20575;-86
2022/08/16 07:06:13;;;;;;;3.58;2.30;;;19.60;60.10;;;;;;5105357;28;20253;-86
2022/08/16 07:08:41;;;;;;;4.28;2.60;;;19.50;60.30;;;;;;5113687;28;20200;-86
2022/08/16 07:11:08;;;;;;;3.42;2.05;;;19.70;63.80;;;;;;5111098;28;20199;-86
2022/08/16 07:13:36;;;;;;;4.18;2.17;;;19.80;58.90;;;;;;5116433;27;20207;-86
2022/08/16 07:16:15;;;;;;;2.35;2.03;;;19.90;55.80;;;;;;5109609;28;20211;-86
2022/08/16 07:18:42;;;;;;;3.33;2.20;;;20.10;56.00;;;;;;5104549;28;20247;-83
2022/08/16 07:21:10;;;;;;;4.63;2.38;;;20.20;52.40;;;;;;5117818;28;20204;-83
2022/08/16 07:23:45;;;;;;;2.63;2.03;;;20.30;50.00;;;;;;5118763;28;20203;-83
2022/08/16 07:26:18;;;;;;;5.30;2.42;;;20.50;49.20;;;;;;5111863;28;20203;-83
2022/08/16 07:28:45;;;;;;;4.40;2.30;;;20.60;46.30;;;;;;5122809;28;20200;-83
2022/08/16 07:31:19;;;;;;;3.22;2.20;;;20.70;45.30;;;;;;5117287;27;20192;-83
2022/08/16 07:33:48;;;;;;;5.50;2.45;;;20.80;47.60;;;;;;5116674;28;20195;-83
2022/08/16 07:36:24;;;;;;;3.20;2.08;;;20.90;46.70;;;;;;5109888;28;20199;-83
2022/08/16 07:38:52;;;;;;;3.33;2.10;;;20.90;41.50;;;;;;5120164;28;20342;-83
2022/08/16 07:41:19;;;;;;;2.42;2.00;;;21.00;40.30;;;;;;5106181;28;20207;-83
2022/08/16 07:43:46;;;;;;;2.97;2.33;;;21.00;40.20;;;;;;5109235;28;20219;-83
2022/08/16 07:46:13;;;;;;;2.85;2.10;;;21.00;39.20;;;;;;5118277;28;20212;-83
2022/08/16 07:48:40;;;;;;;2.50;2.30;;;21.20;40.30;;;;;;5113504;28;20667;-83
2022/08/16 07:51:12;;;;;;;3.33;2.55;;;21.30;40.90;;;;;;5111045;28;20642;-83
2022/08/16 07:53:39;;;;;;;2.45;2.13;;;21.40;39.30;;;;;;5096506;28;20215;-83
2022/08/16 07:56:08;;;;;;;2.58;2.03;;;21.50;36.20;;;;;;5114815;28;20203;-83
2022/08/16 07:58:34;;;;;;;4.53;2.15;;;21.70;34.60;;;;;;5119557;28;20787;-84
2022/08/16 08:01:04;;;;;;;3.97;2.00;;;21.70;33.70;;;;;;5119400;28;20291;-83
2022/08/16 08:03:32;;;;;;;4.47;2.55;;;21.70;33.50;;;;;;5110697;28;20208;-84
2022/08/16 08:06:02;;;;;;;4.50;2.42;;;21.80;33.60;;;;;;5113118;28;20239;-84
2022/08/16 08:08:28;;;;;;;2.92;2.10;;;21.80;33.60;;;;;;5119599;28;20233;-84
2022/08/16 08:10:56;;;;;;;3.60;2.47;;;21.90;33.60;;;;;;5118849;28;20271;-84
2022/08/16 08:13:24;;;;;;;2.67;2.33;;;22.00;35.00;;;;;;5118415;28;20196;-84
2022/08/16 08:15:55;;;;;;;3.42;2.40;;;22.20;32.50;;;;;;5109846;28;20203;-84
2022/08/16 08:18:24;;;;;;;5.88;2.15;;;22.30;32.10;;;;;;5119304;28;20283;-83
2022/08/16 08:20:51;;;;;;;2.90;2.10;;;22.40;32.80;;;;;;5108433;28;20193;-84
2022/08/16 08:23:19;;;;;;;5.22;2.55;;;22.50;30.20;;;;;;5116778;28;20200;-84
2022/08/16 08:25:47;;;;;;;5.15;2.42;;;22.50;30.30;;;;;;5114463;28;20886;-84
2022/08/16 08:28:14;;;;;;;4.18;2.42;;;22.60;28.60;;;;;;5114770;28;20199;-83
2022/08/16 08:30:42;;;;;;;2.70;2.50;;;22.70;28.60;;;;;;5119024;28;20230;-84
2022/08/16 08:33:11;;;;;;;2.40;2.20;;;22.80;29.90;;;;;;5114362;28;20196;-84
2022/08/16 08:35:38;;;;;;;3.63;2.35;;;22.90;28.20;;;;;;5118648;28;20192;-84
2022/08/16 08:38:07;;;;;;;2.60;2.33;;;22.90;27.60;;;;;;5111858;28;20207;-84
2022/08/16 08:40:35;;;;;;;2.42;2.20;;;23.00;27.20;;;;;;5107907;28;20198;-84
2022/08/16 08:43:03;;;;;;;4.35;3.33;;;23.10;27.70;;;;;;5105077;28;20200;-84
2022/08/16 08:45:31;;;;;;;3.92;2.70;;;23.20;28.00;;;;;;5118318;28;20208;-84
2022/08/16 08:47:59;;;;;;;4.90;2.65;;;23.30;26.70;;;;;;5103949;28;20197;-84
2022/08/16 08:50:26;;;;;;;4.47;2.50;;;23.40;25.10;;;;;;5112529;28;20195;-84
2022/08/16 08:52:54;;;;;;;3.55;2.63;;;23.30;24.10;;;;;;5113807;28;20198;-83
2022/08/16 08:55:22;;;;;;;4.43;3.15;;;23.20;25.80;;;;;;5107520;28;20202;-83
2022/08/16 08:57:55;;;;;;;3.67;2.30;;;23.40;24.50;;;;;;5118833;28;20239;-83
2022/08/16 09:00:24;;;;;;;3.15;2.58;;;23.60;24.70;;;;;;5112176;28;20220;-83
2022/08/16 09:03:08;;;;;;;4.38;2.35;;;23.80;23.50;;;;;;5110246;28;20212;-84
2022/08/16 09:05:35;;;;;;;3.38;2.47;;;24.00;23.50;;;;;;5116447;28;20204;-84
2022/08/16 09:08:02;;;;;;;5.20;2.70;;;24.30;23.00;;;;;;5113330;28;20236;-84
2022/08/16 09:10:29;;;;;;;3.08;2.22;;;24.60;23.10;;;;;;5114977;28;20203;-81
2022/08/16 09:13:04;;;;;;;5.05;2.88;;;25.20;21.50;;;;;;5115020;28;20203;-82
2022/08/16 09:15:32;;;;;;;3.33;2.67;;;26.30;17.90;;;;;;5121653;28;20567;-82
2022/08/16 09:17:59;;;;;;;2.70;2.50;;;27.40;15.30;;;;;;5118025;28;20199;-82
2022/08/16 09:20:28;;;;;;;4.68;2.53;;;29.10;13.70;;;;;;5110543;28;20230;-85
2022/08/16 09:22:56;;;;;;;7.78;7.05;;;30.40;11.90;;;;;;5114003;28;20610;-85
2022/08/16 09:25:23;;;;;;;3.72;2.70;;;32.00;8.90;;;;;;5113697;28;20211;-85
2022/08/16 09:27:51;;;;;;;5.28;4.78;;;32.60;8.30;;;;;;5114516;28;20207;-85
2022/08/16 09:30:18;;;;;;;5.03;4.55;;;32.90;7.20;;;;;;5112090;28;20298;-85
2022/08/16 09:32:49;;;;;;;3.45;3.15;;;33.30;6.40;;;;;;5114250;28;20207;-85
2022/08/16 09:35:16;;;;;;;3.53;3.22;;;34.10;5.70;;;;;;5113085;28;20688;-85
2022/08/16 09:37:44;;;;;;;3.30;3.10;;;34.30;5.40;;;;;;5111370;28;20203;-85
2022/08/16 09:40:12;;;;;;;4.38;3.20;;;33.40;6.20;;;;;;5100978;28;20693;-85
2022/08/16 09:42:39;;;;;;;4.38;3.97;;;33.70;6.10;;;;;;5114193;28;20210;-85
2022/08/16 09:45:07;;;;;;;4.55;3.80;;;33.70;6.10;;;;;;5114768;28;20223;-85
2022/08/16 09:47:36;;;;;;;4.15;3.40;;;33.40;6.20;;;;;;5118754;28;20238;-85
2022/08/16 09:50:03;;;;;;;3.78;3.47;;;33.00;7.50;;;;;;5122226;28;20224;-85
2022/08/16 09:52:30;;;;;;;4.32;4.00;;;34.20;5.80;;;;;;5121910;28;20192;-83
2022/08/16 09:54:58;;;;;;;4.25;3.90;;;35.20;4.30;;;;;;5120655;28;20210;-84
2022/08/16 09:57:25;;;;;;;4.65;4.25;;;34.80;4.80;;;;;;5109756;28;20200;-84
2022/08/16 09:59:52;;;;;;;12.90;11.57;;;34.50;3.70;;;;;;5119251;28;20650;-84
2022/08/16 10:02:19;;;;;;;4.25;3.90;;;34.80;3.50;;;;;;5118830;28;20561;-83
2022/08/16 10:04:46;;;;;;;4.22;3.88;;;34.30;4.20;;;;;;5120856;28;20196;-83
2022/08/16 10:07:12;;;;;;;4.47;4.07;;;34.30;4.60;;;;;;5120542;28;20249;-84
2022/08/16 10:09:43;;;;;;;4.28;4.00;;;34.10;5.50;;;;;;5119225;28;20203;-83
2022/08/16 10:14:55;;;;;;;7.97;7.38;;;34.40;6.60;;;;;;5101947;28;20291;-85
2022/08/16 10:17:23;;;;;;;4.65;3.90;;;34.40;3.00;;;;;;5112589;28;20211;-85
2022/08/16 10:19:50;;;;;;;5.93;3.75;;;34.60;2.60;;;;;;5107281;28;20621;-85
2022/08/16 10:22:17;;;;;;;5.15;4.05;;;34.50;3.60;;;;;;5117116;28;20198;-85
2022/08/16 10:24:44;;;;;;;3.60;3.30;;;35.20;1.80;;;;;;5117515;28;20559;-84
2022/08/16 10:27:13;;;;;;;4.07;3.78;;;33.60;4.20;;;;;;5120207;28;20227;-84
2022/08/16 10:29:40;;;;;;;3.60;3.30;;;33.40;5.40;;;;;;5117087;28;20206;-84
2022/08/16 10:32:07;;;;;;;4.03;3.42;;;34.00;4.90;;;;;;5108227;28;20283;-84
2022/08/16 10:34:34;;;;;;;4.03;3.08;;;32.60;6.30;;;;;;5118831;28;20240;-85
2022/08/16 10:37:01;;;;;;;4.15;3.30;;;31.30;7.70;;;;;;5117234;28;20297;-85
2022/08/16 10:39:28;;;;;;;4.22;3.20;;;30.60;9.30;;;;;;5098632;28;20220;-85
2022/08/16 10:41:55;;;;;;;3.55;2.97;;;30.10;9.40;;;;;;5115133;28;20559;-85
2022/08/16 10:44:23;;;;;;;3.40;2.83;;;29.20;9.80;;;;;;5121117;28;20228;-84
2022/08/16 10:46:50;;;;;;;3.85;3.40;;;28.50;10.80;;;;;;5119813;28;20199;-84
2022/08/16 10:49:16;;;;;;;3.25;2.60;;;28.10;11.90;;;;;;5117711;28;20207;-84
2022/08/16 10:51:46;;;;;;;3.30;3.00;;;28.90;11.40;;;;;;5114002;28;20222;-85
2022/08/16 10:54:24;;;;;;;3.88;3.08;;;30.40;8.20;;;;;;5106525;28;20204;-85
2022/08/16 10:56:54;;;;;;;5.78;3.20;;;31.50;6.70;;;;;;5116086;28;20202;-85
2022/08/16 10:59:24;;;;;;;5.70;3.10;;;32.10;8.10;;;;;;5116144;27;20219;-84
2022/08/16 11:01:51;;;;;;;3.22;3.00;;;31.70;7.30;;;;;;5116164;28;20231;-84
2022/08/16 11:04:18;;;;;;;5.35;3.33;;;32.10;6.30;;;;;;5116243;28;20210;-84
2022/08/16 11:06:45;;;;;;;3.72;2.97;;;30.50;7.30;;;;;;5114265;28;20681;-84
2022/08/16 11:09:12;;;;;;;5.13;2.90;;;30.20;9.00;;;;;;5115701;28;20245;-84
2022/08/16 11:11:39;;;;;;;4.15;2.72;;;29.80;9.10;;;;;;5114733;28;20286;-84
2022/08/16 11:14:06;;;;;;;3.78;2.70;;;29.40;9.70;;;;;;5116472;28;20205;-84
2022/08/16 11:16:35;;;;;;;3.55;2.75;;;29.00;11.10;;;;;;5116662;28;20199;-84
2022/08/16 11:19:03;;;;;;;3.00;2.80;;;28.30;11.10;;;;;;5115505;28;20270;-84
2022/08/16 11:21:29;;;;;;;4.15;3.67;;;27.80;12.60;;;;;;5117708;28;20203;-84
2022/08/16 11:23:56;;;;;;;2.83;2.60;;;28.00;13.70;;;;;;5118533;28;20206;-84
2022/08/16 11:26:23;;;;;;;4.45;2.90;;;28.50;12.10;;;;;;5115062;27;20203;-84
2022/08/16 11:28:51;;;;;;;3.92;2.83;;;28.70;10.50;;;;;;5119148;28;20724;-84
2022/08/16 11:31:25;;;;;;;3.75;2.60;;;28.90;14.00;;;;;;5118229;28;20415;-84
2022/08/16 11:33:53;;;;;;;4.20;2.97;;;29.00;12.10;;;;;;5118362;28;20195;-84
2022/08/16 11:36:36;;;;;;;3.17;2.80;;;29.10;11.00;;;;;;5115307;28;20560;-84
2022/08/16 11:39:04;;;;;;;4.15;3.10;;;28.60;10.30;;;;;;5116431;28;20226;-84
2022/08/16 11:41:32;;;;;;;3.65;3.00;;;28.40;12.70;;;;;;5116590;27;20200;-84
2022/08/16 11:44:00;;;;;;;2.95;2.60;;;28.40;12.50;;;;;;5111088;28;20215;-84
2022/08/16 11:46:28;;;;;;;3.35;2.97;;;28.90;9.50;;;;;;5120355;28;20257;-84
2022/08/16 11:48:57;;;;;;;3.38;3.03;;;29.10;10.10;;;;;;5118141;28;20567;-84
2022/08/16 11:51:24;;;;;;;3.15;2.80;;;28.80;9.90;;;;;;5112524;28;20277;-84
2022/08/16 11:53:51;;;;;;;9.27;3.00;;;28.80;11.00;;;;;;5111643;28;20672;-84
2022/08/16 11:56:18;;;;;;;4.85;4.07;;;28.90;9.50;;;;;;5113191;28;20599;-84
2022/08/16 11:58:45;;;;;;;3.83;3.42;;;28.90;10.30;;;;;;5108415;28;20199;-84
2022/08/16 12:01:14;;;;;;;3.22;2.80;;;28.40;11.30;;;;;;5107990;28;20643;-84
2022/08/16 12:03:41;;;;;;;4.20;3.30;;;28.50;11.50;;;;;;5115944;28;20195;-84
2022/08/16 12:06:13;;;;;;;4.28;3.42;;;28.70;10.60;;;;;;5111386;28;20219;-84
2022/08/16 12:08:41;;;;;;;4.45;3.05;;;28.70;10.20;;;;;;5108410;28;20220;-84
2022/08/16 12:11:08;;;;;;;3.65;2.63;;;28.90;9.90;;;;;;5106088;28;20208;-84
2022/08/16 12:13:35;;;;;;;2.83;2.47;;;29.30;10.50;;;;;;5115396;28;20686;-84
2022/08/16 12:16:03;;;;;;;3.92;2.92;;;29.40;9.50;;;;;;5112137;28;20235;-83
2022/08/16 12:18:30;;;;;;;3.53;3.22;;;29.60;10.40;;;;;;5117695;28;20199;-83
2022/08/16 12:20:57;;;;;;;5.63;2.83;;;29.70;7.70;;;;;;5108232;28;20226;-83
2022/08/16 12:23:25;;;;;;;328.55;201.70;;;29.80;7.70;;;;;;5110712;28;20530;-83
2022/08/16 12:25:52;;;;;;;55.10;32.20;;;29.60;8.80;;;;;;5117702;28;20569;-83
2022/08/16 12:28:19;;;;;;;6.10;4.47;;;29.60;9.10;;;;;;5106710;28;20199;-83
2022/08/16 12:30:46;;;;;;;12.43;7.20;;;29.40;8.40;;;;;;5116384;27;20191;-83
2022/08/16 12:33:15;;;;;;;6.65;3.88;;;29.10;8.90;;;;;;5109799;28;20651;-82
2022/08/16 12:35:45;;;;;;;4.68;2.95;;;29.10;9.00;;;;;;5117379;28;20207;-83
2022/08/16 12:38:12;;;;;;;3.20;2.90;;;29.00;8.40;;;;;;5114788;28;20215;-83
2022/08/16 12:40:47;;;;;;;4.07;2.97;;;28.90;7.80;;;;;;5105495;28;20596;-83
2022/08/16 12:43:21;;;;;;;3.80;3.45;;;29.10;9.10;;;;;;5116551;28;20281;-83
2022/08/16 12:45:51;;;;;;;4.07;2.80;;;29.10;9.40;;;;;;5107582;28;20200;-83
2022/08/16 12:51:10;;;;;;;7.03;2.88;;;29.10;8.90;;;;;;5110112;28;20225;-84
2022/08/16 12:53:43;;;;;;;3.42;2.88;;;29.10;8.20;;;;;;5106124;28;20245;-84
2022/08/16 12:56:13;;;;;;;3.50;2.50;;;29.30;7.80;;;;;;5108205;28;20203;-83
2022/08/16 12:58:42;;;;;;;4.03;2.50;;;29.40;6.70;;;;;;5107204;28;20191;-84